createdAt,value
2018-12-21T00:00:00.121Z,100933.92
2018-12-21T00:02:27.525Z,100935.84
2018-12-21T00:04:54.784Z,100938.11
2018-12-21T00:07:22.004Z,100933.02
2018-12-21T00:09:49.269Z,100927.55
2018-12-21T00:12:33.408Z,100928.31
2018-12-21T00:15:01.140Z,100927.70
2018-12-21T00:17:34.506Z,100922.95
2018-12-21T00:20:00.148Z,100921.47
2018-12-21T00:22:27.404Z,100917.67
2018-12-21T00:24:55.176Z,100916.15
2018-12-21T00:27:22.573Z,100914.52
2018-12-21T00:29:49.946Z,100911.66
2018-12-21T00:32:23.124Z,100904.47
2018-12-21T00:34:56.108Z,100900.67
2018-12-21T00:37:29.116Z,100901.90
2018-12-21T00:40:02.464Z,100897.41
2018-12-21T00:42:39.208Z,100899.22
2018-12-21T00:45:10.684Z,100894.84
2018-12-21T00:47:37.924Z,100898.27
2018-12-21T00:50:06.331Z,100901.93
2018-12-21T00:52:34.187Z,100897.45
2018-12-21T00:55:01.481Z,100899.15
2018-12-21T00:57:30.772Z,100896.03
2018-12-21T00:59:58.272Z,100900.85
2018-12-21T01:02:25.605Z,100898.93
2018-12-21T01:04:52.970Z,100897.91
2018-12-21T01:07:20.208Z,100899.17
2018-12-21T01:09:47.564Z,100890.63
2018-12-21T01:12:15.220Z,100888.84
2018-12-21T01:14:42.779Z,100889.25
2018-12-21T01:17:09.984Z,100890.52
2018-12-21T01:19:37.256Z,100892.48
2018-12-21T01:22:05.399Z,100892.61
2018-12-21T01:24:32.608Z,100893.78
2018-12-21T01:26:59.821Z,100888.00
2018-12-21T01:29:27.052Z,100887.92
2018-12-21T01:31:54.247Z,100895.09
2018-12-21T01:34:21.473Z,100891.05
2018-12-21T01:36:48.783Z,100892.70
2018-12-21T01:39:15.985Z,100889.43
2018-12-21T01:41:43.324Z,100879.20
2018-12-21T01:44:12.335Z,100883.31
2018-12-21T01:46:39.749Z,100891.13
2018-12-21T01:49:06.980Z,100886.33
2018-12-21T01:51:34.192Z,100880.92
2018-12-21T01:54:01.392Z,100883.27
2018-12-21T01:56:28.748Z,100878.43
2018-12-21T01:58:55.944Z,100874.88
2018-12-21T02:01:23.160Z,100876.61
2018-12-21T02:03:50.508Z,100871.75
2018-12-21T02:06:17.712Z,100883.00
2018-12-21T02:08:44.936Z,100882.95
2018-12-21T02:11:12.263Z,100869.86
2018-12-21T02:13:39.470Z,100869.25
2018-12-21T02:16:06.684Z,100870.97
2018-12-21T02:18:34.061Z,100868.17
2018-12-21T02:21:01.259Z,100864.15
2018-12-21T02:23:28.524Z,100854.72
2018-12-21T02:25:55.736Z,100857.99
2018-12-21T02:28:23.204Z,100857.99
2018-12-21T02:30:50.415Z,100855.44
2018-12-21T02:33:17.668Z,100854.91
2018-12-21T02:35:44.955Z,100848.34
2018-12-21T02:38:12.160Z,100850.00
2018-12-21T02:40:39.400Z,100851.36
2018-12-21T02:43:06.606Z,100848.87
2018-12-21T02:45:33.958Z,100845.73
2018-12-21T02:48:01.157Z,100850.17
2018-12-21T02:50:28.386Z,100848.23
2018-12-21T02:52:55.616Z,100840.86
2018-12-21T02:55:22.868Z,100831.68
2018-12-21T02:57:50.072Z,100828.59
2018-12-21T03:00:17.317Z,100831.12
2018-12-21T03:02:44.653Z,100828.59
2018-12-21T03:05:12.016Z,100833.28
2018-12-21T03:07:39.213Z,100824.16
2018-12-21T03:10:06.934Z,100826.92
2018-12-21T03:12:34.158Z,100823.11
2018-12-21T03:15:01.631Z,100823.75
2018-12-21T03:17:28.869Z,100814.44
2018-12-21T03:19:56.092Z,100815.27
2018-12-21T03:22:23.352Z,100805.39
2018-12-21T03:24:50.569Z,100811.74
2018-12-21T03:27:17.792Z,100806.45
2018-12-21T03:29:45.056Z,100802.45
2018-12-21T03:32:12.278Z,100799.19
2018-12-21T03:34:39.490Z,100796.08
2018-12-21T03:37:07.728Z,100789.02
2018-12-21T03:39:34.980Z,100793.06
2018-12-21T03:42:02.196Z,100788.93
2018-12-21T03:44:29.467Z,100785.72
2018-12-21T03:46:56.688Z,100777.59
2018-12-21T03:49:23.918Z,100775.34
2018-12-21T03:51:51.376Z,100770.67
2018-12-21T03:54:18.584Z,100771.33
2018-12-21T03:56:46.938Z,100769.89
2018-12-21T03:59:14.169Z,100761.33
2018-12-21T04:01:41.395Z,100758.83
2018-12-21T04:04:08.696Z,100761.56
2018-12-21T04:06:36.831Z,100757.89
2018-12-21T04:09:05.721Z,100756.03
2018-12-21T04:11:32.956Z,100759.33
2018-12-21T04:14:00.214Z,100749.13
2018-12-21T04:16:27.646Z,100741.42
2018-12-21T04:18:54.874Z,100737.34
2018-12-21T04:21:22.113Z,100736.93
2018-12-21T04:23:49.357Z,100740.00
2018-12-21T04:26:16.576Z,100737.33
2018-12-21T04:28:44.017Z,100738.53
2018-12-21T04:31:11.233Z,100731.77
2018-12-21T04:33:38.448Z,100731.37
2018-12-21T04:36:05.693Z,100730.72
2018-12-21T04:38:32.986Z,100733.55
2018-12-21T04:41:00.376Z,100725.84
2018-12-21T04:43:29.214Z,100725.37
2018-12-21T04:45:56.633Z,100719.16
2018-12-21T04:48:23.984Z,100718.39
2018-12-21T04:50:51.196Z,100714.67
2018-12-21T04:53:18.408Z,100717.56
2018-12-21T04:55:45.696Z,100704.05
2018-12-21T04:58:12.920Z,100706.13
2018-12-21T05:00:40.899Z,100706.49
2018-12-21T05:03:08.228Z,100698.97
2018-12-21T05:05:35.460Z,100701.08
2018-12-21T05:08:02.751Z,100700.40
2018-12-21T05:10:30.091Z,100703.75
2018-12-21T05:12:57.332Z,100701.10
2018-12-21T05:15:24.580Z,100695.13
2018-12-21T05:17:51.824Z,100696.56
2018-12-21T05:20:19.092Z,100694.99
2018-12-21T05:22:52.186Z,100687.11
2018-12-21T05:25:15.556Z,100678.91
2018-12-21T05:27:42.792Z,100680.00
2018-12-21T05:30:10.041Z,100673.97
2018-12-21T05:32:37.289Z,100671.47
2018-12-21T05:35:04.928Z,100668.78
2018-12-21T05:37:32.257Z,100665.62
2018-12-21T05:39:59.492Z,100658.88
2018-12-21T05:42:26.716Z,100656.63
2018-12-21T05:44:54.016Z,100648.50
2018-12-21T05:47:21.321Z,100646.84
2018-12-21T05:49:48.556Z,100639.33
2018-12-21T05:52:15.808Z,100633.09
2018-12-21T05:54:43.037Z,100637.88
2018-12-21T05:57:10.389Z,100631.08
2018-12-21T05:59:38.881Z,100627.37
2018-12-21T06:02:06.113Z,100619.00
2018-12-21T06:04:33.324Z,100607.48
2018-12-21T06:07:00.561Z,100599.22
2018-12-21T06:09:27.782Z,100604.79
2018-12-21T06:11:55.237Z,100608.33
2018-12-21T06:14:22.460Z,100605.22
2018-12-21T06:16:49.705Z,100599.37
2018-12-21T06:19:17.000Z,100598.16
2018-12-21T06:21:44.232Z,100595.08
2018-12-21T06:24:11.524Z,100594.45
2018-12-21T06:26:40.680Z,100575.26
2018-12-21T06:29:08.046Z,100577.75
2018-12-21T06:31:35.299Z,100571.43
2018-12-21T06:34:02.524Z,100571.43
2018-12-21T06:36:29.780Z,100570.95
2018-12-21T06:38:57.020Z,100572.26
2018-12-21T06:41:24.262Z,100569.34
2018-12-21T06:43:51.509Z,100567.24
2018-12-21T06:46:18.775Z,100568.63
2018-12-21T06:48:47.080Z,100563.62
2018-12-21T06:51:14.360Z,100565.39
2018-12-21T06:53:41.590Z,100569.45
2018-12-21T06:56:08.864Z,100561.96
2018-12-21T06:58:36.116Z,100564.17
2018-12-21T07:01:03.381Z,100568.63
2018-12-21T07:03:30.604Z,100570.95
2018-12-21T07:05:57.848Z,100567.16
2018-12-21T07:08:25.065Z,100562.53
2018-12-21T07:10:52.432Z,100559.71
2018-12-21T07:13:19.795Z,100555.13
2018-12-21T07:15:47.049Z,100554.97
2018-12-21T07:18:14.284Z,100554.14
2018-12-21T07:20:41.663Z,100545.09
2018-12-21T07:23:08.904Z,100536.34
2018-12-21T07:25:36.148Z,100526.08
2018-12-21T07:28:03.471Z,100524.77
2018-12-21T07:30:30.709Z,100523.06
2018-12-21T07:32:57.971Z,100521.73
2018-12-21T07:35:25.316Z,100524.63
2018-12-21T07:37:52.688Z,100524.60
2018-12-21T07:40:19.960Z,100516.96
2018-12-21T07:42:47.212Z,100516.09
2018-12-21T07:45:14.520Z,100521.66
2018-12-21T07:47:41.769Z,100513.56
2018-12-21T07:50:09.658Z,100508.64
2018-12-21T07:52:37.036Z,100502.55
2018-12-21T07:55:06.861Z,100503.31
2018-12-21T07:57:34.144Z,100503.31
2018-12-21T08:00:01.372Z,100496.61
2018-12-21T08:02:28.760Z,100486.51
2018-12-21T08:04:57.008Z,100490.22
2018-12-21T08:07:25.320Z,100480.84
2018-12-21T08:09:52.549Z,100478.12
2018-12-21T08:12:19.809Z,100483.62
2018-12-21T08:14:47.044Z,100479.95
2018-12-21T08:17:14.296Z,100478.30
2018-12-21T08:19:41.653Z,100474.86
2018-12-21T08:22:08.900Z,100467.20
2018-12-21T08:24:36.255Z,100466.07
2018-12-21T08:27:03.629Z,100459.41
2018-12-21T08:29:31.096Z,100454.45
2018-12-21T08:31:58.360Z,100453.54
2018-12-21T08:34:25.608Z,100447.56
2018-12-21T08:36:52.849Z,100442.73
2018-12-21T08:39:20.101Z,100435.84
2018-12-21T08:41:47.369Z,100433.14
2018-12-21T08:44:14.618Z,100424.16
2018-12-21T08:46:41.849Z,100423.77
2018-12-21T08:49:09.078Z,100419.10
2018-12-21T08:51:36.488Z,100413.45
2018-12-21T08:54:03.853Z,100407.81
2018-12-21T08:56:31.084Z,100406.13
2018-12-21T08:58:58.309Z,100411.91
2018-12-21T09:01:25.568Z,100405.05
2018-12-21T09:03:52.800Z,100401.48
2018-12-21T09:06:20.200Z,100393.92
2018-12-21T09:08:47.445Z,100393.47
2018-12-21T09:11:14.728Z,100389.77
2018-12-21T09:13:41.964Z,100380.09
2018-12-21T09:16:09.312Z,100375.58
2018-12-21T09:18:36.732Z,100364.12
2018-12-21T09:21:04.092Z,100364.00
2018-12-21T09:23:31.314Z,100356.40
2018-12-21T09:25:58.672Z,100360.42
2018-12-21T09:28:26.040Z,100359.03
2018-12-21T09:30:53.284Z,100356.08
2018-12-21T09:33:20.524Z,100351.08
2018-12-21T09:35:47.926Z,100346.92
2018-12-21T09:38:15.280Z,100346.83
2018-12-21T09:40:42.629Z,100338.07
2018-12-21T09:43:10.017Z,100338.19
2018-12-21T09:45:37.301Z,100328.10
2018-12-21T09:48:04.663Z,100325.72
2018-12-21T09:50:32.252Z,100316.47
2018-12-21T09:52:59.600Z,100308.93
2018-12-21T09:55:26.832Z,100305.95
2018-12-21T09:57:54.093Z,100296.25
2018-12-21T10:00:21.364Z,100293.86
2018-12-21T10:02:48.608Z,100291.14
2018-12-21T10:05:16.477Z,100282.97
2018-12-21T10:07:43.888Z,100280.83
2018-12-21T10:10:12.116Z,100276.45
2018-12-21T10:12:39.388Z,100268.39
2018-12-21T10:15:07.984Z,100264.02
2018-12-21T10:17:35.212Z,100259.16
2018-12-21T10:20:02.553Z,100253.71
2018-12-21T10:22:29.905Z,100245.30
2018-12-21T10:24:57.125Z,100244.57
2018-12-21T10:27:24.466Z,100235.48
2018-12-21T10:29:51.700Z,100226.02
2018-12-21T10:32:18.949Z,100219.62
2018-12-21T10:34:46.184Z,100214.75
2018-12-21T10:37:13.546Z,100200.42
2018-12-21T10:39:40.791Z,100194.26
2018-12-21T10:42:08.040Z,100184.56
2018-12-21T10:44:35.281Z,100181.39
2018-12-21T10:47:02.503Z,100181.84
2018-12-21T10:49:32.037Z,100171.09
2018-12-21T10:51:58.992Z,100163.95
2018-12-21T10:54:26.939Z,100159.39
2018-12-21T10:56:54.566Z,100151.30
2018-12-21T10:59:21.820Z,100146.61
2018-12-21T11:01:49.057Z,100140.70
2018-12-21T11:04:16.332Z,100141.92
2018-12-21T11:06:43.560Z,100135.89
2018-12-21T11:09:10.810Z,100121.71
2018-12-21T11:11:38.036Z,100123.90
2018-12-21T11:14:05.272Z,100116.48
2018-12-21T11:16:32.500Z,100112.84
2018-12-21T11:18:59.744Z,100106.91
2018-12-21T11:21:26.964Z,100098.67
2018-12-21T11:23:54.325Z,100092.70
2018-12-21T11:26:21.564Z,100080.63
2018-12-21T11:28:48.792Z,100078.72
2018-12-21T11:31:16.008Z,100063.22
2018-12-21T11:33:44.384Z,100057.22
2018-12-21T11:36:11.836Z,100057.52
2018-12-21T11:38:39.072Z,100045.43
2018-12-21T11:41:06.312Z,100033.89
2018-12-21T11:43:35.349Z,100022.97
2018-12-21T11:46:02.861Z,100022.48
2018-12-21T11:48:30.105Z,100012.78
2018-12-21T11:50:58.424Z,100004.11
2018-12-21T11:53:25.668Z,100003.87
2018-12-21T11:55:52.916Z,99994.66
2018-12-21T11:58:20.168Z,99991.67
2018-12-21T12:00:47.383Z,99975.91
2018-12-21T12:03:14.628Z,99981.58
2018-12-21T12:05:41.868Z,99970.00
2018-12-21T12:08:09.261Z,99963.30
2018-12-21T12:10:36.495Z,99959.16
2018-12-21T12:13:04.080Z,99956.36
2018-12-21T12:15:31.635Z,99940.34
2018-12-21T12:17:58.881Z,99939.77
2018-12-21T12:20:26.104Z,99937.20
2018-12-21T12:22:53.317Z,99936.90
2018-12-21T12:25:20.681Z,99937.27
2018-12-21T12:27:48.028Z,99928.17
2018-12-21T12:30:15.291Z,99923.06
2018-12-21T12:32:42.512Z,99916.25
2018-12-21T12:35:10.817Z,99912.65
2018-12-21T12:37:38.052Z,99902.09
2018-12-21T12:40:07.260Z,99902.20
2018-12-21T12:42:34.788Z,99900.25
2018-12-21T12:45:02.044Z,99889.38
2018-12-21T12:47:29.384Z,99884.95
2018-12-21T12:49:57.728Z,99881.38
2018-12-21T12:52:24.987Z,99874.73
2018-12-21T12:54:52.237Z,99866.48
2018-12-21T12:57:19.468Z,99854.47
2018-12-21T13:02:40.192Z,99829.08
2018-12-21T13:05:08.843Z,99829.10
2018-12-21T13:07:37.065Z,99824.91
2018-12-21T13:10:06.664Z,99820.47
2018-12-21T13:12:33.928Z,99816.59
2018-12-21T13:15:02.178Z,99815.77
2018-12-21T13:17:29.569Z,99802.73
2018-12-21T13:19:56.817Z,99795.67
2018-12-21T13:22:24.665Z,99793.55
2018-12-21T13:24:52.224Z,99790.09
2018-12-21T13:27:19.784Z,99792.89
2018-12-21T13:29:47.001Z,99789.69
2018-12-21T13:32:14.393Z,99787.28
2018-12-21T13:34:41.645Z,99782.69
2018-12-21T13:37:09.566Z,99771.69
2018-12-21T13:39:36.900Z,99773.44
2018-12-21T13:42:04.439Z,99762.47
2018-12-21T13:44:31.701Z,99746.43
2018-12-21T13:46:59.124Z,99743.04
2018-12-21T13:49:26.360Z,99722.42
2018-12-21T13:51:53.622Z,99713.62
2018-12-21T13:54:20.904Z,99708.50
2018-12-21T13:56:48.230Z,99701.09
2018-12-21T13:59:15.793Z,99694.97
2018-12-21T14:01:43.097Z,99695.88
2018-12-21T14:04:10.320Z,99693.70
2018-12-21T14:06:37.547Z,99692.00
2018-12-21T14:09:06.722Z,99682.59
2018-12-21T14:11:34.036Z,99674.75
2018-12-21T14:14:01.266Z,99677.77
2018-12-21T14:16:28.540Z,99669.04
2018-12-21T14:18:55.797Z,99664.63
2018-12-21T14:21:23.376Z,99661.02
2018-12-21T14:23:50.597Z,99640.91
2018-12-21T14:26:17.849Z,99644.55
2018-12-21T14:28:45.080Z,99647.41
2018-12-21T14:31:12.909Z,99645.20
2018-12-21T14:33:41.991Z,99640.39
2018-12-21T14:36:09.225Z,99634.45
2018-12-21T14:38:36.469Z,99631.70
2018-12-21T14:41:04.157Z,99626.28
2018-12-21T14:43:31.558Z,99620.56
2018-12-21T14:45:58.837Z,99608.94
2018-12-21T14:48:26.081Z,99597.08
2018-12-21T14:50:53.621Z,99589.78
2018-12-21T14:53:20.858Z,99585.64
2018-12-21T14:55:48.080Z,99584.32
2018-12-21T14:58:15.312Z,99582.30
2018-12-21T15:00:42.540Z,99572.29
2018-12-21T15:03:09.763Z,99572.29
2018-12-21T15:05:38.104Z,99572.84
2018-12-21T15:08:05.388Z,99567.50
2018-12-21T15:10:32.607Z,99561.86
2018-12-21T15:12:59.973Z,99559.69
2018-12-21T15:15:27.200Z,99552.55
2018-12-21T15:17:54.421Z,99554.97
2018-12-21T15:20:21.699Z,99553.61
2018-12-21T15:22:49.340Z,99543.16
2018-12-21T15:25:16.572Z,99545.28
2018-12-21T15:27:43.865Z,99544.77
2018-12-21T15:30:11.282Z,99536.78
2018-12-21T15:32:39.062Z,99540.88
2018-12-21T15:35:06.660Z,99523.71
2018-12-21T15:37:33.892Z,99522.03
2018-12-21T15:40:01.129Z,99511.89
2018-12-21T15:42:28.388Z,99505.73
2018-12-21T15:44:55.596Z,99505.05
2018-12-21T15:47:22.816Z,99499.37
2018-12-21T15:49:50.064Z,99489.44
2018-12-21T15:52:17.669Z,99479.70
2018-12-21T15:54:44.892Z,99473.53
2018-12-21T15:57:12.143Z,99470.98
2018-12-21T15:59:39.361Z,99461.00
2018-12-21T16:02:06.629Z,99465.38
2018-12-21T16:04:34.105Z,99457.52
2018-12-21T16:07:01.350Z,99456.73
2018-12-21T16:09:28.853Z,99447.97
2018-12-21T16:11:56.108Z,99458.73
2018-12-21T16:14:23.344Z,99448.66
2018-12-21T16:16:50.900Z,99445.26
2018-12-21T16:19:18.170Z,99442.86
2018-12-21T16:21:45.418Z,99433.04
2018-12-21T16:24:12.660Z,99430.23
2018-12-21T16:26:40.048Z,99433.78
2018-12-21T16:29:07.397Z,99428.80
2018-12-21T16:31:34.653Z,99418.99
2018-12-21T16:34:01.864Z,99416.73
2018-12-21T16:36:29.318Z,99417.08
2018-12-21T16:38:56.629Z,99415.08
2018-12-21T16:41:23.885Z,99409.49
2018-12-21T16:43:51.216Z,99404.27
2018-12-21T16:46:18.873Z,99398.46
2018-12-21T16:48:47.311Z,99405.85
2018-12-21T16:52:18.388Z,99398.85
2018-12-21T16:54:45.633Z,99387.47
2018-12-21T16:57:12.925Z,99382.02
2018-12-21T16:59:40.176Z,99379.33
2018-12-21T17:02:07.409Z,99376.87
2018-12-21T17:04:35.602Z,99373.60
2018-12-21T17:07:03.077Z,99373.65
2018-12-21T17:09:30.321Z,99366.77
2018-12-21T17:11:57.573Z,99358.07
2018-12-21T17:14:24.804Z,99356.67
2018-12-21T17:16:52.024Z,99345.80
2018-12-21T17:19:20.745Z,99345.82
2018-12-21T17:21:47.988Z,99344.06
2018-12-21T17:24:15.241Z,99342.78
2018-12-21T17:26:44.372Z,99343.08
2018-12-21T17:29:11.656Z,99342.78
2018-12-21T17:31:38.876Z,99341.59
2018-12-21T17:34:06.144Z,99333.23
2018-12-21T17:36:33.466Z,99339.41
2018-12-21T17:39:00.719Z,99332.37
2018-12-21T17:41:28.043Z,99327.38
2018-12-21T17:43:55.289Z,99325.56
2018-12-21T17:46:22.512Z,99329.13
2018-12-21T17:48:49.747Z,99334.02
2018-12-21T17:51:19.085Z,99322.98
2018-12-21T17:53:46.465Z,99315.52
2018-12-21T17:56:13.729Z,99313.17
2018-12-21T17:58:40.968Z,99309.38
2018-12-21T18:01:08.232Z,99306.95
2018-12-21T18:03:41.485Z,99294.39
2018-12-21T18:06:09.760Z,99290.48
2018-12-21T18:08:37.001Z,99287.83
2018-12-21T18:11:04.269Z,99297.81
2018-12-21T18:13:31.497Z,99272.08
2018-12-21T18:16:00.836Z,99277.53
2018-12-21T18:18:29.060Z,99273.86
2018-12-21T18:20:56.473Z,99277.59
2018-12-21T18:23:25.549Z,99284.78
2018-12-21T18:25:52.784Z,99277.20
2018-12-21T18:28:24.877Z,99265.38
2018-12-21T18:30:57.308Z,99261.04
2018-12-21T18:33:25.109Z,99251.12
2018-12-21T18:35:52.369Z,99257.56
2018-12-21T18:38:22.128Z,99249.45
2018-12-21T18:40:50.436Z,99256.78
2018-12-21T18:43:17.717Z,99257.03
2018-12-21T18:45:44.972Z,99254.33
2018-12-21T18:48:12.249Z,99255.24
2018-12-21T18:50:40.571Z,99248.69
2018-12-21T18:53:07.820Z,99241.42
2018-12-21T18:55:35.420Z,99247.12
2018-12-21T18:58:02.671Z,99240.11
2018-12-21T19:00:29.912Z,99239.47
2018-12-21T19:02:57.364Z,99232.59
2018-12-21T19:05:24.587Z,99233.31
2018-12-21T19:07:51.821Z,99229.42
2018-12-21T19:10:19.256Z,99230.55
2018-12-21T19:12:46.529Z,99232.59
2018-12-21T19:15:16.093Z,99235.12
2018-12-21T19:17:44.861Z,99234.87
2018-12-21T19:20:12.352Z,99234.38
2018-12-21T19:22:39.836Z,99234.11
2018-12-21T19:25:09.776Z,99234.13
2018-12-21T19:27:38.159Z,99232.38
2018-12-21T19:30:08.352Z,99229.67
2018-12-21T19:32:40.544Z,99237.81
2018-12-21T19:35:08.888Z,99241.68
2018-12-21T19:37:36.156Z,99242.22
2018-12-21T19:40:04.737Z,99227.55
2018-12-21T19:42:32.085Z,99235.16
2018-12-21T19:44:59.556Z,99230.50
2018-12-21T19:47:26.909Z,99227.89
2018-12-21T19:49:55.148Z,99232.30
2018-12-21T19:52:22.424Z,99233.12
2018-12-21T19:54:54.097Z,99246.53
2018-12-21T19:57:21.324Z,99233.59
2018-12-21T19:59:48.910Z,99238.02
2018-12-21T20:02:16.312Z,99227.68
2018-12-21T20:04:43.570Z,99232.09
2018-12-21T20:07:11.040Z,99222.30
2018-12-21T20:09:38.288Z,99212.58
2018-12-21T20:12:06.584Z,99224.75
2018-12-21T20:14:33.852Z,99220.54
2018-12-21T20:17:01.134Z,99226.29
2018-12-21T20:19:28.372Z,99221.97
2018-12-21T20:21:55.624Z,99230.57
2018-12-21T20:24:27.680Z,99227.03
2018-12-21T20:26:59.841Z,99233.75
2018-12-21T20:29:27.240Z,99213.77
2018-12-21T20:31:54.480Z,99230.76
2018-12-21T20:34:21.721Z,99225.30
2018-12-21T20:36:48.967Z,99221.02
2018-12-21T20:39:20.074Z,99225.59
2018-12-21T20:41:47.313Z,99223.14
2018-12-21T20:44:14.537Z,99220.69
2018-12-21T20:46:41.779Z,99223.20
2018-12-21T20:49:09.044Z,99232.81
2018-12-21T20:51:36.284Z,99232.06
2018-12-21T20:54:03.540Z,99244.46
2018-12-21T20:56:30.805Z,99241.14
2018-12-21T20:59:03.425Z,99240.86
2018-12-21T21:01:30.672Z,99236.04
2018-12-21T21:03:57.920Z,99246.03
2018-12-21T21:06:25.140Z,99252.11
2018-12-21T21:08:52.967Z,99261.61
2018-12-21T21:11:24.347Z,99277.18
2018-12-21T21:13:49.481Z,99269.05
2018-12-21T21:16:16.772Z,99279.11
2018-12-21T21:18:44.708Z,99279.03
2018-12-21T21:21:11.944Z,99284.98
2018-12-21T21:23:39.332Z,99286.37
2018-12-21T21:26:06.672Z,99290.23
2018-12-21T21:28:34.038Z,99295.75
2018-12-21T21:31:01.280Z,99301.77
2018-12-21T21:33:28.516Z,99312.78
2018-12-21T21:35:55.749Z,99321.40
2018-12-21T21:38:23.004Z,99325.17
2018-12-21T21:40:50.265Z,99333.05
2018-12-21T21:43:19.003Z,99338.47
2018-12-21T21:45:46.266Z,99357.67
2018-12-21T21:48:13.508Z,99394.27
2018-12-21T21:50:40.812Z,99380.11
2018-12-21T21:53:10.696Z,99381.81
2018-12-21T21:55:38.421Z,99382.67
2018-12-21T22:05:05.654Z,99427.81
2018-12-21T22:07:33.075Z,99433.99
2018-12-21T22:10:00.328Z,99458.82
2018-12-21T22:12:27.557Z,99466.16
2018-12-21T22:14:55.874Z,99477.11
2018-12-21T22:17:23.083Z,99487.02
2018-12-21T22:19:50.344Z,99488.13
2018-12-21T22:22:17.561Z,99500.26
2018-12-21T22:24:44.801Z,99536.82
2018-12-21T22:27:12.017Z,99513.49
2018-12-21T22:29:39.293Z,99529.12
2018-12-21T22:32:06.524Z,99522.16
2018-12-21T22:34:33.764Z,99534.81
2018-12-21T22:37:01.044Z,99542.48
2018-12-21T22:39:28.297Z,99555.96
2018-12-21T22:41:55.526Z,99540.41
2018-12-21T22:44:22.775Z,99549.80
2018-12-21T22:46:50.628Z,99567.48
2018-12-21T22:49:18.888Z,99556.86
2018-12-21T22:51:46.630Z,99569.81
2018-12-21T22:54:13.951Z,99571.83
2018-12-21T22:56:42.218Z,99586.05
2018-12-21T22:59:10.647Z,99590.39
2018-12-21T23:01:37.952Z,99597.54
2018-12-21T23:04:05.304Z,99611.81
2018-12-21T23:06:33.587Z,99609.55
2018-12-21T23:09:01.870Z,99619.45
2018-12-21T23:11:30.742Z,99625.88
2018-12-21T23:13:58.416Z,99624.17
2018-12-21T23:16:25.788Z,99636.44
2018-12-21T23:18:53.041Z,99627.40
2018-12-21T23:21:20.329Z,99649.55
2018-12-21T23:23:47.560Z,99658.63
2018-12-21T23:26:14.872Z,99660.52
2018-12-21T23:28:43.136Z,99682.64
2018-12-21T23:31:11.445Z,99661.64
2018-12-21T23:33:38.691Z,99693.39
2018-12-21T23:36:05.964Z,99700.34
2018-12-21T23:38:35.345Z,99699.08
2018-12-21T23:41:02.596Z,99720.63
2018-12-21T23:43:29.925Z,99720.95
2018-12-21T23:45:58.755Z,99732.92
2018-12-21T23:48:26.004Z,99733.22
2018-12-21T23:50:53.249Z,99738.53
2018-12-21T23:53:20.480Z,99745.52
2018-12-21T23:55:47.728Z,99754.48
2018-12-21T23:58:14.944Z,99751.78
